sensor_id;sensor_type;location;lat;lon;timestamp;temperature;humidity
53152;DHT22;39234;53.158;6.322;2022-10-16T00:01:48;12.30;99.90
53152;DHT22;39234;53.158;6.322;2022-10-16T00:04:14;12.20;99.90
53152;DHT22;39234;53.158;6.322;2022-10-16T00:06:40;12.30;99.90
53152;DHT22;39234;53.158;6.322;2022-10-16T00:09:06;12.40;99.90
53152;DHT22;39234;53.158;6.322;2022-10-16T00:11:34;12.40;99.90
53152;DHT22;39234;53.158;6.322;2022-10-16T00:14:03;12.30;99.90
53152;DHT22;39234;53.158;6.322;2022-10-16T00:16:29;12.20;99.90
53152;DHT22;39234;53.158;6.322;2022-10-16T00:18:55;12.20;99.90
53152;DHT22;39234;53.158;6.322;2022-10-16T00:21:26;12.20;99.90
53152;DHT22;39234;53.158;6.322;2022-10-16T00:23:55;12.10;99.90
53152;DHT22;39234;53.158;6.322;2022-10-16T00:26:21;12.10;99.90
53152;DHT22;39234;53.158;6.322;2022-10-16T00:28:48;12.10;99.90
53152;DHT22;39234;53.158;6.322;2022-10-16T00:31:15;12.10;99.90
53152;DHT22;39234;53.158;6.322;2022-10-16T00:33:41;12.20;99.90
53152;DHT22;39234;53.158;6.322;2022-10-16T00:36:09;12.20;99.90
53152;DHT22;39234;53.158;6.322;2022-10-16T00:38:36;13.10;99.90
53152;DHT22;39234;53.158;6.322;2022-10-16T00:41:03;12.20;99.90
53152;DHT22;39234;53.158;6.322;2022-10-16T00:45:58;12.10;99.90
53152;DHT22;39234;53.158;6.322;2022-10-16T00:48:24;12.10;99.90
53152;DHT22;39234;53.158;6.322;2022-10-16T00:50:49;13.50;99.90
53152;DHT22;39234;53.158;6.322;2022-10-16T00:53:16;12.10;99.90
53152;DHT22;39234;53.158;6.322;2022-10-16T00:55:42;12.20;99.90
53152;DHT22;39234;53.158;6.322;2022-10-16T00:58:09;12.40;99.90
53152;DHT22;39234;53.158;6.322;2022-10-16T01:00:35;12.20;99.90
53152;DHT22;39234;53.158;6.322;2022-10-16T01:03:02;12.30;99.90
53152;DHT22;39234;53.158;6.322;2022-10-16T01:06:09;12.20;99.90
53152;DHT22;39234;53.158;6.322;2022-10-16T01:08:58;12.40;99.90
53152;DHT22;39234;53.158;6.322;2022-10-16T01:17:04;12.30;99.90
53152;DHT22;39234;53.158;6.322;2022-10-16T01:22:17;12.20;99.90
53152;DHT22;39234;53.158;6.322;2022-10-16T01:24:48;12.30;99.90
53152;DHT22;39234;53.158;6.322;2022-10-16T01:29:58;12.30;99.90
53152;DHT22;39234;53.158;6.322;2022-10-16T01:32:36;12.50;99.90
53152;DHT22;39234;53.158;6.322;2022-10-16T01:35:11;12.30;99.90
53152;DHT22;39234;53.158;6.322;2022-10-16T01:38:03;12.80;99.90
53152;DHT22;39234;53.158;6.322;2022-10-16T01:40:32;12.40;99.90
53152;DHT22;39234;53.158;6.322;2022-10-16T01:43:08;12.40;99.90
53152;DHT22;39234;53.158;6.322;2022-10-16T01:45:34;12.50;99.90
53152;DHT22;39234;53.158;6.322;2022-10-16T01:48:02;12.60;99.90
53152;DHT22;39234;53.158;6.322;2022-10-16T01:50:33;12.50;99.90
53152;DHT22;39234;53.158;6.322;2022-10-16T01:53:02;12.40;99.90
53152;DHT22;39234;53.158;6.322;2022-10-16T01:55:35;12.40;99.90
53152;DHT22;39234;53.158;6.322;2022-10-16T01:58:03;12.70;99.90
53152;DHT22;39234;53.158;6.322;2022-10-16T02:00:31;12.50;99.90
53152;DHT22;39234;53.158;6.322;2022-10-16T02:02:58;12.50;99.90
53152;DHT22;39234;53.158;6.322;2022-10-16T02:05:54;12.50;99.90
53152;DHT22;39234;53.158;6.322;2022-10-16T02:08:23;12.60;99.90
53152;DHT22;39234;53.158;6.322;2022-10-16T02:10:49;12.50;99.90
53152;DHT22;39234;53.158;6.322;2022-10-16T02:13:25;12.70;99.90
53152;DHT22;39234;53.158;6.322;2022-10-16T02:15:53;14.60;99.90
53152;DHT22;39234;53.158;6.322;2022-10-16T02:18:19;13.50;99.90
53152;DHT22;39234;53.158;6.322;2022-10-16T02:21:14;12.50;99.90
53152;DHT22;39234;53.158;6.322;2022-10-16T02:27:22;12.50;99.90
53152;DHT22;39234;53.158;6.322;2022-10-16T02:29:24;14.90;99.90
53152;DHT22;39234;53.158;6.322;2022-10-16T02:31:54;12.70;99.90
53152;DHT22;39234;53.158;6.322;2022-10-16T02:34:22;12.70;99.90
53152;DHT22;39234;53.158;6.322;2022-10-16T02:36:50;12.80;99.90
53152;DHT22;39234;53.158;6.322;2022-10-16T02:39:18;13.30;99.90
53152;DHT22;39234;53.158;6.322;2022-10-16T02:41:45;12.60;99.90
53152;DHT22;39234;53.158;6.322;2022-10-16T02:44:11;12.60;99.90
53152;DHT22;39234;53.158;6.322;2022-10-16T02:46:36;12.50;99.90
53152;DHT22;39234;53.158;6.322;2022-10-16T02:49:02;12.90;99.90
53152;DHT22;39234;53.158;6.322;2022-10-16T02:51:28;12.70;99.90
53152;DHT22;39234;53.158;6.322;2022-10-16T02:53:54;12.50;99.90
53152;DHT22;39234;53.158;6.322;2022-10-16T02:56:19;12.80;99.90
53152;DHT22;39234;53.158;6.322;2022-10-16T02:58:45;12.50;99.90
53152;DHT22;39234;53.158;6.322;2022-10-16T03:01:11;12.50;99.90
53152;DHT22;39234;53.158;6.322;2022-10-16T03:03:38;12.50;99.90
53152;DHT22;39234;53.158;6.322;2022-10-16T03:06:04;12.60;99.90
53152;DHT22;39234;53.158;6.322;2022-10-16T03:08:31;12.60;99.90
53152;DHT22;39234;53.158;6.322;2022-10-16T03:10:57;12.30;99.90
53152;DHT22;39234;53.158;6.322;2022-10-16T03:13:23;12.70;99.90
53152;DHT22;39234;53.158;6.322;2022-10-16T03:15:48;12.60;99.90
53152;DHT22;39234;53.158;6.322;2022-10-16T03:18:14;12.30;99.90
53152;DHT22;39234;53.158;6.322;2022-10-16T03:20:40;12.40;99.90
53152;DHT22;39234;53.158;6.322;2022-10-16T03:23:06;12.60;99.90
53152;DHT22;39234;53.158;6.322;2022-10-16T03:25:33;12.50;99.90
53152;DHT22;39234;53.158;6.322;2022-10-16T03:27:59;13.20;99.90
53152;DHT22;39234;53.158;6.322;2022-10-16T03:30:24;12.30;99.90
53152;DHT22;39234;53.158;6.322;2022-10-16T03:32:50;12.30;99.90
53152;DHT22;39234;53.158;6.322;2022-10-16T03:35:23;12.40;99.90
53152;DHT22;39234;53.158;6.322;2022-10-16T03:37:49;12.40;99.90
53152;DHT22;39234;53.158;6.322;2022-10-16T03:40:16;12.40;99.90
53152;DHT22;39234;53.158;6.322;2022-10-16T03:42:44;12.30;99.90
53152;DHT22;39234;53.158;6.322;2022-10-16T03:45:11;12.60;99.90
53152;DHT22;39234;53.158;6.322;2022-10-16T03:47:36;12.50;99.90
53152;DHT22;39234;53.158;6.322;2022-10-16T03:50:03;12.40;99.90
53152;DHT22;39234;53.158;6.322;2022-10-16T03:52:29;12.40;99.90
53152;DHT22;39234;53.158;6.322;2022-10-16T03:54:55;12.20;99.90
53152;DHT22;39234;53.158;6.322;2022-10-16T03:57:21;12.10;99.90
53152;DHT22;39234;53.158;6.322;2022-10-16T03:59:47;12.90;99.90
53152;DHT22;39234;53.158;6.322;2022-10-16T04:02:12;12.10;99.90
53152;DHT22;39234;53.158;6.322;2022-10-16T04:04:38;12.80;99.90
53152;DHT22;39234;53.158;6.322;2022-10-16T04:07:04;12.20;99.90
53152;DHT22;39234;53.158;6.322;2022-10-16T04:09:30;13.00;99.90
53152;DHT22;39234;53.158;6.322;2022-10-16T04:11:55;12.10;99.90
53152;DHT22;39234;53.158;6.322;2022-10-16T04:14:21;12.00;99.90
53152;DHT22;39234;53.158;6.322;2022-10-16T04:16:47;11.90;99.90
53152;DHT22;39234;53.158;6.322;2022-10-16T04:19:13;12.60;99.90
53152;DHT22;39234;53.158;6.322;2022-10-16T04:21:38;12.20;99.90
53152;DHT22;39234;53.158;6.322;2022-10-16T04:24:04;12.10;99.90
53152;DHT22;39234;53.158;6.322;2022-10-16T04:26:30;13.90;99.90
53152;DHT22;39234;53.158;6.322;2022-10-16T04:28:56;13.90;99.90
53152;DHT22;39234;53.158;6.322;2022-10-16T04:31:22;12.20;99.90
53152;DHT22;39234;53.158;6.322;2022-10-16T04:33:48;12.20;99.90
53152;DHT22;39234;53.158;6.322;2022-10-16T04:36:13;12.30;99.90
53152;DHT22;39234;53.158;6.322;2022-10-16T04:38:39;13.10;99.90
53152;DHT22;39234;53.158;6.322;2022-10-16T04:41:06;13.20;99.90
53152;DHT22;39234;53.158;6.322;2022-10-16T04:43:33;12.50;99.90
53152;DHT22;39234;53.158;6.322;2022-10-16T04:45:59;12.30;99.90
53152;DHT22;39234;53.158;6.322;2022-10-16T04:48:25;12.40;99.90
53152;DHT22;39234;53.158;6.322;2022-10-16T04:50:51;12.60;99.90
53152;DHT22;39234;53.158;6.322;2022-10-16T04:53:16;12.40;99.90
53152;DHT22;39234;53.158;6.322;2022-10-16T04:55:43;12.30;99.90
53152;DHT22;39234;53.158;6.322;2022-10-16T04:58:09;12.60;99.90
53152;DHT22;39234;53.158;6.322;2022-10-16T05:00:35;12.30;99.90
53152;DHT22;39234;53.158;6.322;2022-10-16T05:03:01;12.50;99.90
53152;DHT22;39234;53.158;6.322;2022-10-16T05:05:31;12.60;99.90
53152;DHT22;39234;53.158;6.322;2022-10-16T05:07:57;13.50;99.90
53152;DHT22;39234;53.158;6.322;2022-10-16T05:10:22;12.50;99.90
53152;DHT22;39234;53.158;6.322;2022-10-16T05:12:48;12.50;99.90
53152;DHT22;39234;53.158;6.322;2022-10-16T05:15:14;13.50;99.90
53152;DHT22;39234;53.158;6.322;2022-10-16T05:17:40;12.30;99.90
53152;DHT22;39234;53.158;6.322;2022-10-16T05:20:06;12.40;99.90
53152;DHT22;39234;53.158;6.322;2022-10-16T05:22:32;12.50;99.90
53152;DHT22;39234;53.158;6.322;2022-10-16T05:24:57;12.40;99.90
53152;DHT22;39234;53.158;6.322;2022-10-16T05:27:23;12.50;99.90
53152;DHT22;39234;53.158;6.322;2022-10-16T05:29:49;13.50;99.90
53152;DHT22;39234;53.158;6.322;2022-10-16T05:32:16;13.40;99.90
53152;DHT22;39234;53.158;6.322;2022-10-16T05:34:42;12.40;99.90
53152;DHT22;39234;53.158;6.322;2022-10-16T05:37:09;12.30;99.90
53152;DHT22;39234;53.158;6.322;2022-10-16T05:39:34;12.30;99.90
53152;DHT22;39234;53.158;6.322;2022-10-16T05:42:02;12.70;99.90
53152;DHT22;39234;53.158;6.322;2022-10-16T05:44:28;12.40;99.90
53152;DHT22;39234;53.158;6.322;2022-10-16T05:46:53;12.40;99.90
53152;DHT22;39234;53.158;6.322;2022-10-16T05:49:19;12.80;99.90
53152;DHT22;39234;53.158;6.322;2022-10-16T05:51:45;12.50;99.90
53152;DHT22;39234;53.158;6.322;2022-10-16T05:54:10;12.50;99.90
53152;DHT22;39234;53.158;6.322;2022-10-16T05:56:37;12.50;99.90
53152;DHT22;39234;53.158;6.322;2022-10-16T05:59:05;12.90;99.90
53152;DHT22;39234;53.158;6.322;2022-10-16T06:01:31;12.30;99.90
53152;DHT22;39234;53.158;6.322;2022-10-16T06:03:57;12.20;99.90
53152;DHT22;39234;53.158;6.322;2022-10-16T06:06:25;13.90;99.90
53152;DHT22;39234;53.158;6.322;2022-10-16T06:08:52;12.30;99.90
53152;DHT22;39234;53.158;6.322;2022-10-16T06:11:20;12.30;99.90
53152;DHT22;39234;53.158;6.322;2022-10-16T06:13:51;12.10;99.90
53152;DHT22;39234;53.158;6.322;2022-10-16T06:16:17;12.40;99.90
53152;DHT22;39234;53.158;6.322;2022-10-16T06:18:43;12.40;99.90
53152;DHT22;39234;53.158;6.322;2022-10-16T06:21:11;12.40;99.90
53152;DHT22;39234;53.158;6.322;2022-10-16T06:23:37;12.80;99.90
53152;DHT22;39234;53.158;6.322;2022-10-16T06:26:08;12.40;99.90
53152;DHT22;39234;53.158;6.322;2022-10-16T06:28:34;12.40;99.90
53152;DHT22;39234;53.158;6.322;2022-10-16T06:31:01;12.40;99.90
53152;DHT22;39234;53.158;6.322;2022-10-16T06:33:27;12.50;99.90
53152;DHT22;39234;53.158;6.322;2022-10-16T06:35:52;12.60;99.90
53152;DHT22;39234;53.158;6.322;2022-10-16T06:38:18;12.40;99.90
53152;DHT22;39234;53.158;6.322;2022-10-16T06:40:44;12.40;99.90
53152;DHT22;39234;53.158;6.322;2022-10-16T06:43:10;12.60;99.90
53152;DHT22;39234;53.158;6.322;2022-10-16T06:45:35;11.40;99.90
53152;DHT22;39234;53.158;6.322;2022-10-16T06:48:01;12.60;99.90
53152;DHT22;39234;53.158;6.322;2022-10-16T06:50:27;12.70;99.90
53152;DHT22;39234;53.158;6.322;2022-10-16T06:52:52;12.70;99.90
53152;DHT22;39234;53.158;6.322;2022-10-16T06:55:18;12.50;99.90
53152;DHT22;39234;53.158;6.322;2022-10-16T06:57:45;12.50;99.90
53152;DHT22;39234;53.158;6.322;2022-10-16T07:00:12;12.60;99.90
53152;DHT22;39234;53.158;6.322;2022-10-16T07:02:37;12.70;99.90
53152;DHT22;39234;53.158;6.322;2022-10-16T07:05:03;12.70;99.90
53152;DHT22;39234;53.158;6.322;2022-10-16T07:07:29;12.60;99.90
53152;DHT22;39234;53.158;6.322;2022-10-16T07:09:55;12.90;99.90
53152;DHT22;39234;53.158;6.322;2022-10-16T07:12:21;12.70;99.90
53152;DHT22;39234;53.158;6.322;2022-10-16T07:14:46;12.70;99.90
53152;DHT22;39234;53.158;6.322;2022-10-16T07:17:12;14.40;99.90
53152;DHT22;39234;53.158;6.322;2022-10-16T07:19:38;12.80;99.90
53152;DHT22;39234;53.158;6.322;2022-10-16T07:22:04;12.90;99.90
53152;DHT22;39234;53.158;6.322;2022-10-16T07:24:30;12.70;99.90
53152;DHT22;39234;53.158;6.322;2022-10-16T07:26:55;14.50;99.90
53152;DHT22;39234;53.158;6.322;2022-10-16T07:29:21;12.50;99.90
53152;DHT22;39234;53.158;6.322;2022-10-16T07:31:48;12.90;99.90
53152;DHT22;39234;53.158;6.322;2022-10-16T07:34:15;12.60;99.90
53152;DHT22;39234;53.158;6.322;2022-10-16T07:36:41;12.60;99.90
53152;DHT22;39234;53.158;6.322;2022-10-16T07:39:08;12.60;99.90
53152;DHT22;39234;53.158;6.322;2022-10-16T07:41:34;12.50;99.90
53152;DHT22;39234;53.158;6.322;2022-10-16T07:44:03;12.70;99.90
53152;DHT22;39234;53.158;6.322;2022-10-16T07:46:29;12.50;99.90
53152;DHT22;39234;53.158;6.322;2022-10-16T07:48:55;12.40;99.90
53152;DHT22;39234;53.158;6.322;2022-10-16T07:51:23;12.50;99.90
53152;DHT22;39234;53.158;6.322;2022-10-16T07:53:49;12.40;99.90
53152;DHT22;39234;53.158;6.322;2022-10-16T07:56:17;12.50;99.90
53152;DHT22;39234;53.158;6.322;2022-10-16T07:58:43;12.50;99.90
53152;DHT22;39234;53.158;6.322;2022-10-16T08:01:11;12.60;99.90
53152;DHT22;39234;53.158;6.322;2022-10-16T08:03:38;12.60;99.90
53152;DHT22;39234;53.158;6.322;2022-10-16T08:06:06;12.80;99.90
53152;DHT22;39234;53.158;6.322;2022-10-16T08:08:32;12.90;99.90
53152;DHT22;39234;53.158;6.322;2022-10-16T08:10:58;12.90;99.90
53152;DHT22;39234;53.158;6.322;2022-10-16T08:13:24;13.10;99.90
53152;DHT22;39234;53.158;6.322;2022-10-16T08:15:50;13.10;99.90
53152;DHT22;39234;53.158;6.322;2022-10-16T08:18:16;13.50;99.90
53152;DHT22;39234;53.158;6.322;2022-10-16T08:20:42;13.50;99.90
53152;DHT22;39234;53.158;6.322;2022-10-16T08:23:10;13.40;99.90
53152;DHT22;39234;53.158;6.322;2022-10-16T08:25:36;13.60;99.90
53152;DHT22;39234;53.158;6.322;2022-10-16T08:28:08;15.90;99.90
53152;DHT22;39234;53.158;6.322;2022-10-16T08:30:34;15.80;99.90
53152;DHT22;39234;53.158;6.322;2022-10-16T08:33:01;14.00;99.90
53152;DHT22;39234;53.158;6.322;2022-10-16T08:35:27;14.20;99.90
53152;DHT22;39234;53.158;6.322;2022-10-16T08:37:53;14.70;99.90
53152;DHT22;39234;53.158;6.322;2022-10-16T08:40:22;15.10;99.90
53152;DHT22;39234;53.158;6.322;2022-10-16T08:46:11;14.90;90.70
53152;DHT22;39234;53.158;6.322;2022-10-16T08:48:45;15.10;96.40
53152;DHT22;39234;53.158;6.322;2022-10-16T08:51:19;15.20;95.80
53152;DHT22;39234;53.158;6.322;2022-10-16T08:53:51;15.10;93.80
53152;DHT22;39234;53.158;6.322;2022-10-16T08:56:18;15.00;93.90
53152;DHT22;39234;53.158;6.322;2022-10-16T08:58:45;15.00;93.50
53152;DHT22;39234;53.158;6.322;2022-10-16T09:01:14;14.90;94.90
53152;DHT22;39234;53.158;6.322;2022-10-16T09:14:52;14.70;97.40
53152;DHT22;39234;53.158;6.322;2022-10-16T09:20:27;14.80;98.60
53152;DHT22;39234;53.158;6.322;2022-10-16T09:23:12;15.00;96.90
53152;DHT22;39234;53.158;6.322;2022-10-16T09:25:39;15.10;95.90
53152;DHT22;39234;53.158;6.322;2022-10-16T09:28:08;15.10;93.90
53152;DHT22;39234;53.158;6.322;2022-10-16T09:30:34;15.10;96.10
53152;DHT22;39234;53.158;6.322;2022-10-16T09:33:00;14.90;90.50
53152;DHT22;39234;53.158;6.322;2022-10-16T09:35:33;14.90;93.20
53152;DHT22;39234;53.158;6.322;2022-10-16T09:38:01;14.90;95.00
53152;DHT22;39234;53.158;6.322;2022-10-16T09:45:53;15.00;91.40
53152;DHT22;39234;53.158;6.322;2022-10-16T09:48:19;14.90;88.50
53152;DHT22;39234;53.158;6.322;2022-10-16T09:50:56;15.10;85.90
53152;DHT22;39234;53.158;6.322;2022-10-16T09:53:22;15.20;87.80
53152;DHT22;39234;53.158;6.322;2022-10-16T09:55:52;15.20;89.30
53152;DHT22;39234;53.158;6.322;2022-10-16T09:58:22;15.30;77.00
53152;DHT22;39234;53.158;6.322;2022-10-16T10:00:53;15.40;78.70
53152;DHT22;39234;53.158;6.322;2022-10-16T10:03:33;15.40;76.80
53152;DHT22;39234;53.158;6.322;2022-10-16T10:06:06;15.70;66.60
53152;DHT22;39234;53.158;6.322;2022-10-16T10:08:33;15.70;66.10
53152;DHT22;39234;53.158;6.322;2022-10-16T10:10:58;15.70;67.30
53152;DHT22;39234;53.158;6.322;2022-10-16T10:13:24;15.80;68.80
53152;DHT22;39234;53.158;6.322;2022-10-16T10:15:53;15.80;67.40
53152;DHT22;39234;53.158;6.322;2022-10-16T10:18:20;15.90;65.10
53152;DHT22;39234;53.158;6.322;2022-10-16T10:21:00;15.90;57.60
53152;DHT22;39234;53.158;6.322;2022-10-16T10:23:27;16.00;29.90
53152;DHT22;39234;53.158;6.322;2022-10-16T10:26:07;15.70;41.00
53152;DHT22;39234;53.158;6.322;2022-10-16T10:29:06;16.10;40.80
53152;DHT22;39234;53.158;6.322;2022-10-16T10:31:48;16.10;12.60
53152;DHT22;39234;53.158;6.322;2022-10-16T10:37:55;16.00;4.90
53152;DHT22;39234;53.158;6.322;2022-10-16T10:45:47;15.70;1.00
53152;DHT22;39234;53.158;6.322;2022-10-16T10:48:29;15.70;8.30
53152;DHT22;39234;53.158;6.322;2022-10-16T10:51:22;15.60;22.30
53152;DHT22;39234;53.158;6.322;2022-10-16T10:54:13;15.70;1.00
53152;DHT22;39234;53.158;6.322;2022-10-16T11:02:35;15.50;1.00
53152;DHT22;39234;53.158;6.322;2022-10-16T11:07:38;15.50;1.00
53152;DHT22;39234;53.158;6.322;2022-10-16T11:10:16;15.60;1.00
53152;DHT22;39234;53.158;6.322;2022-10-16T11:16:01;15.60;1.00
53152;DHT22;39234;53.158;6.322;2022-10-16T11:21:55;15.70;1.00
53152;DHT22;39234;53.158;6.322;2022-10-16T11:27:07;15.60;1.00
53152;DHT22;39234;53.158;6.322;2022-10-16T11:29:35;15.50;1.00
53152;DHT22;39234;53.158;6.322;2022-10-16T11:32:21;15.60;1.00
53152;DHT22;39234;53.158;6.322;2022-10-16T11:34:51;15.60;99.90
53152;DHT22;39234;53.158;6.322;2022-10-16T11:37:21;15.60;99.90
53152;DHT22;39234;53.158;6.322;2022-10-16T11:39:50;15.80;1.00
53152;DHT22;39234;53.158;6.322;2022-10-16T11:42:41;16.00;1.00
53152;DHT22;39234;53.158;6.322;2022-10-16T11:47:48;16.30;99.90
53152;DHT22;39234;53.158;6.322;2022-10-16T11:50:23;16.70;99.90
53152;DHT22;39234;53.158;6.322;2022-10-16T11:53:23;16.50;75.40
53152;DHT22;39234;53.158;6.322;2022-10-16T11:55:50;16.20;99.90
53152;DHT22;39234;53.158;6.322;2022-10-16T12:11:43;16.40;99.90
53152;DHT22;39234;53.158;6.322;2022-10-16T12:16:50;16.50;1.00
53152;DHT22;39234;53.158;6.322;2022-10-16T12:19:20;16.70;99.90
53152;DHT22;39234;53.158;6.322;2022-10-16T12:21:46;16.70;1.00
53152;DHT22;39234;53.158;6.322;2022-10-16T12:24:34;16.70;1.00
53152;DHT22;39234;53.158;6.322;2022-10-16T12:27:02;16.70;99.90
53152;DHT22;39234;53.158;6.322;2022-10-16T12:29:31;16.60;99.90
53152;DHT22;39234;53.158;6.322;2022-10-16T12:31:58;16.40;1.00
53152;DHT22;39234;53.158;6.322;2022-10-16T12:34:42;16.60;1.00
53152;DHT22;39234;53.158;6.322;2022-10-16T12:37:37;16.30;1.00
53152;DHT22;39234;53.158;6.322;2022-10-16T12:40:22;16.60;1.00
53152;DHT22;39234;53.158;6.322;2022-10-16T12:42:49;16.20;1.00
53152;DHT22;39234;53.158;6.322;2022-10-16T12:45:30;16.50;99.90
53152;DHT22;39234;53.158;6.322;2022-10-16T12:47:58;16.20;99.90
53152;DHT22;39234;53.158;6.322;2022-10-16T12:53:00;16.20;99.90
53152;DHT22;39234;53.158;6.322;2022-10-16T12:55:26;16.20;99.90
53152;DHT22;39234;53.158;6.322;2022-10-16T12:58:18;16.00;99.90
53152;DHT22;39234;53.158;6.322;2022-10-16T13:00:57;15.90;99.90
53152;DHT22;39234;53.158;6.322;2022-10-16T13:11:57;16.00;99.90
53152;DHT22;39234;53.158;6.322;2022-10-16T13:14:46;15.90;99.90
53152;DHT22;39234;53.158;6.322;2022-10-16T13:28:19;16.00;99.90
53152;DHT22;39234;53.158;6.322;2022-10-16T13:30:54;16.00;99.90
53152;DHT22;39234;53.158;6.322;2022-10-16T13:35:57;15.80;99.90
53152;DHT22;39234;53.158;6.322;2022-10-16T13:38:25;15.80;99.90
53152;DHT22;39234;53.158;6.322;2022-10-16T13:43:20;15.80;99.90
53152;DHT22;39234;53.158;6.322;2022-10-16T13:45:55;16.00;1.00
53152;DHT22;39234;53.158;6.322;2022-10-16T13:48:21;16.00;1.00
53152;DHT22;39234;53.158;6.322;2022-10-16T13:51:11;16.00;1.00
53152;DHT22;39234;53.158;6.322;2022-10-16T13:53:37;15.90;99.90
53152;DHT22;39234;53.158;6.322;2022-10-16T13:56:05;16.00;99.90
53152;DHT22;39234;53.158;6.322;2022-10-16T13:58:31;16.10;99.90
53152;DHT22;39234;53.158;6.322;2022-10-16T14:01:00;16.10;99.90
53152;DHT22;39234;53.158;6.322;2022-10-16T14:03:27;16.00;99.90
53152;DHT22;39234;53.158;6.322;2022-10-16T14:05:55;16.00;99.90
53152;DHT22;39234;53.158;6.322;2022-10-16T14:08:23;16.10;99.90
53152;DHT22;39234;53.158;6.322;2022-10-16T14:10:52;16.20;99.90
53152;DHT22;39234;53.158;6.322;2022-10-16T14:13:29;16.30;99.90
53152;DHT22;39234;53.158;6.322;2022-10-16T14:15:55;16.10;99.90
53152;DHT22;39234;53.158;6.322;2022-10-16T14:18:25;16.00;99.90
53152;DHT22;39234;53.158;6.322;2022-10-16T14:20:52;16.30;99.90
53152;DHT22;39234;53.158;6.322;2022-10-16T14:23:22;16.20;99.90
53152;DHT22;39234;53.158;6.322;2022-10-16T14:25:49;16.10;99.90
53152;DHT22;39234;53.158;6.322;2022-10-16T14:28:18;16.00;99.90
53152;DHT22;39234;53.158;6.322;2022-10-16T14:30:59;15.90;99.90
53152;DHT22;39234;53.158;6.322;2022-10-16T14:36:03;15.80;1.00
53152;DHT22;39234;53.158;6.322;2022-10-16T14:38:31;15.80;99.90
53152;DHT22;39234;53.158;6.322;2022-10-16T14:40:58;15.50;99.90
53152;DHT22;39234;53.158;6.322;2022-10-16T14:43:37;15.80;1.00
53152;DHT22;39234;53.158;6.322;2022-10-16T14:46:12;15.60;99.90
53152;DHT22;39234;53.158;6.322;2022-10-16T14:48:43;15.50;1.00
53152;DHT22;39234;53.158;6.322;2022-10-16T14:51:16;15.40;1.00
53152;DHT22;39234;53.158;6.322;2022-10-16T14:53:42;15.40;1.00
53152;DHT22;39234;53.158;6.322;2022-10-16T14:56:25;15.20;1.00
53152;DHT22;39234;53.158;6.322;2022-10-16T14:58:55;15.20;1.00
53152;DHT22;39234;53.158;6.322;2022-10-16T15:01:21;15.20;1.00
53152;DHT22;39234;53.158;6.322;2022-10-16T15:03:47;15.40;1.00
53152;DHT22;39234;53.158;6.322;2022-10-16T15:06:15;15.10;1.00
53152;DHT22;39234;53.158;6.322;2022-10-16T15:08:40;15.10;1.00
53152;DHT22;39234;53.158;6.322;2022-10-16T15:11:14;15.20;1.00
53152;DHT22;39234;53.158;6.322;2022-10-16T15:13:41;15.00;1.00
53152;DHT22;39234;53.158;6.322;2022-10-16T15:16:12;15.00;1.00
53152;DHT22;39234;53.158;6.322;2022-10-16T15:18:39;14.90;3.40
53152;DHT22;39234;53.158;6.322;2022-10-16T15:21:05;14.80;10.90
53152;DHT22;39234;53.158;6.322;2022-10-16T15:23:31;15.00;18.20
53152;DHT22;39234;53.158;6.322;2022-10-16T15:25:57;14.60;25.00
53152;DHT22;39234;53.158;6.322;2022-10-16T15:28:24;14.70;30.00
53152;DHT22;39234;53.158;6.322;2022-10-16T15:30:52;14.70;29.20
53152;DHT22;39234;53.158;6.322;2022-10-16T15:33:21;15.70;32.80
53152;DHT22;39234;53.158;6.322;2022-10-16T15:35:52;14.70;35.30
53152;DHT22;39234;53.158;6.322;2022-10-16T15:38:19;14.50;36.40
53152;DHT22;39234;53.158;6.322;2022-10-16T15:40:46;14.40;39.40
53152;DHT22;39234;53.158;6.322;2022-10-16T15:43:12;14.30;44.70
53152;DHT22;39234;53.158;6.322;2022-10-16T15:45:38;14.30;42.70
53152;DHT22;39234;53.158;6.322;2022-10-16T15:48:04;14.20;44.10
53152;DHT22;39234;53.158;6.322;2022-10-16T15:50:30;14.10;41.50
53152;DHT22;39234;53.158;6.322;2022-10-16T15:52:56;14.10;39.10
53152;DHT22;39234;53.158;6.322;2022-10-16T15:55:22;13.90;36.30
53152;DHT22;39234;53.158;6.322;2022-10-16T15:57:48;13.90;35.40
53152;DHT22;39234;53.158;6.322;2022-10-16T16:00:17;13.90;35.40
53152;DHT22;39234;53.158;6.322;2022-10-16T16:02:48;15.90;41.50
53152;DHT22;39234;53.158;6.322;2022-10-16T16:05:15;13.70;44.80
53152;DHT22;39234;53.158;6.322;2022-10-16T16:07:40;13.90;45.90
53152;DHT22;39234;53.158;6.322;2022-10-16T16:10:09;13.60;47.60
53152;DHT22;39234;53.158;6.322;2022-10-16T16:12:35;13.80;55.50
53152;DHT22;39234;53.158;6.322;2022-10-16T16:15:01;13.40;66.90
53152;DHT22;39234;53.158;6.322;2022-10-16T16:17:27;13.50;70.60
53152;DHT22;39234;53.158;6.322;2022-10-16T16:19:52;13.20;76.20
53152;DHT22;39234;53.158;6.322;2022-10-16T16:22:18;13.10;79.90
53152;DHT22;39234;53.158;6.322;2022-10-16T16:24:44;12.90;85.30
53152;DHT22;39234;53.158;6.322;2022-10-16T16:27:10;13.00;89.90
53152;DHT22;39234;53.158;6.322;2022-10-16T16:29:35;12.90;91.70
53152;DHT22;39234;53.158;6.322;2022-10-16T16:32:01;12.70;92.70
53152;DHT22;39234;53.158;6.322;2022-10-16T16:34:28;12.60;94.30
53152;DHT22;39234;53.158;6.322;2022-10-16T16:36:55;12.40;94.10
53152;DHT22;39234;53.158;6.322;2022-10-16T16:39:21;12.40;95.00
53152;DHT22;39234;53.158;6.322;2022-10-16T16:41:47;13.40;96.80
53152;DHT22;39234;53.158;6.322;2022-10-16T16:44:14;12.80;97.00
53152;DHT22;39234;53.158;6.322;2022-10-16T16:46:41;12.20;98.70
53152;DHT22;39234;53.158;6.322;2022-10-16T16:49:09;12.10;97.80
53152;DHT22;39234;53.158;6.322;2022-10-16T16:51:35;12.20;98.50
53152;DHT22;39234;53.158;6.322;2022-10-16T16:54:01;11.90;99.70
53152;DHT22;39234;53.158;6.322;2022-10-16T16:56:27;12.10;99.90
53152;DHT22;39234;53.158;6.322;2022-10-16T16:58:54;11.70;99.90
53152;DHT22;39234;53.158;6.322;2022-10-16T17:01:22;11.90;99.90
53152;DHT22;39234;53.158;6.322;2022-10-16T17:03:50;11.90;99.90
53152;DHT22;39234;53.158;6.322;2022-10-16T17:06:22;11.70;99.90
53152;DHT22;39234;53.158;6.322;2022-10-16T17:08:48;11.50;99.90
53152;DHT22;39234;53.158;6.322;2022-10-16T17:11:20;11.60;99.90
53152;DHT22;39234;53.158;6.322;2022-10-16T17:13:46;11.40;99.90
53152;DHT22;39234;53.158;6.322;2022-10-16T17:16:12;11.40;99.90
53152;DHT22;39234;53.158;6.322;2022-10-16T17:18:38;11.30;99.90
53152;DHT22;39234;53.158;6.322;2022-10-16T17:21:06;11.30;99.90
53152;DHT22;39234;53.158;6.322;2022-10-16T17:23:33;11.60;99.90
53152;DHT22;39234;53.158;6.322;2022-10-16T17:26:17;11.20;99.90
53152;DHT22;39234;53.158;6.322;2022-10-16T17:28:43;11.30;99.90
53152;DHT22;39234;53.158;6.322;2022-10-16T17:31:16;12.00;99.90
53152;DHT22;39234;53.158;6.322;2022-10-16T17:33:43;12.80;99.90
53152;DHT22;39234;53.158;6.322;2022-10-16T17:36:09;10.90;99.90
53152;DHT22;39234;53.158;6.322;2022-10-16T17:38:36;11.10;99.90